sensor_id;sensor_type;location;lat;lon;timestamp;temperature;humidity
21518;DHT22;61765;45.794;24.150;2023-04-02T00:01:52;14.80;85.00
21518;DHT22;61765;45.794;24.150;2023-04-02T00:09:58;15.00;85.00
21518;DHT22;61765;45.794;24.150;2023-04-02T00:18:08;15.10;84.70
21518;DHT22;61765;45.794;24.150;2023-04-02T00:26:22;14.90;85.20
21518;DHT22;61765;45.794;24.150;2023-04-02T00:34:32;14.90;85.80
21518;DHT22;61765;45.794;24.150;2023-04-02T00:42:39;14.90;85.80
21518;DHT22;61765;45.794;24.150;2023-04-02T00:50:50;14.90;86.10
21518;DHT22;61765;45.794;24.150;2023-04-02T00:58:57;15.10;85.80
21518;DHT22;61765;45.794;24.150;2023-04-02T01:07:09;15.10;85.60
21518;DHT22;61765;45.794;24.150;2023-04-02T01:15:18;15.00;86.00
21518;DHT22;61765;45.794;24.150;2023-04-02T01:23:37;15.00;85.70
21518;DHT22;61765;45.794;24.150;2023-04-02T01:31:47;15.10;85.90
21518;DHT22;61765;45.794;24.150;2023-04-02T01:40:09;15.10;85.90
21518;DHT22;61765;45.794;24.150;2023-04-02T01:48:23;15.00;85.50
21518;DHT22;61765;45.794;24.150;2023-04-02T01:56:31;15.00;85.40
21518;DHT22;61765;45.794;24.150;2023-04-02T02:04:40;15.00;85.40
21518;DHT22;61765;45.794;24.150;2023-04-02T02:12:45;15.00;85.50
21518;DHT22;61765;45.794;24.150;2023-04-02T02:20:56;15.10;85.60
21518;DHT22;61765;45.794;24.150;2023-04-02T02:29:03;15.10;85.60
21518;DHT22;61765;45.794;24.150;2023-04-02T02:37:16;15.20;85.70
21518;DHT22;61765;45.794;24.150;2023-04-02T02:45:28;15.30;85.30
21518;DHT22;61765;45.794;24.150;2023-04-02T02:53:49;15.30;85.30
21518;DHT22;61765;45.794;24.150;2023-04-02T03:01:56;15.10;86.20
21518;DHT22;61765;45.794;24.150;2023-04-02T03:10:12;15.30;85.50
21518;DHT22;61765;45.794;24.150;2023-04-02T03:18:26;15.40;85.20
21518;DHT22;61765;45.794;24.150;2023-04-02T03:26:43;15.40;85.20
21518;DHT22;61765;45.794;24.150;2023-04-02T03:34:52;15.40;84.80
21518;DHT22;61765;45.794;24.150;2023-04-02T03:43:04;15.40;85.20
21518;DHT22;61765;45.794;24.150;2023-04-02T03:51:19;15.40;85.20
21518;DHT22;61765;45.794;24.150;2023-04-02T03:59:35;15.50;84.80
21518;DHT22;61765;45.794;24.150;2023-04-02T04:07:44;15.60;84.60
21518;DHT22;61765;45.794;24.150;2023-04-02T04:15:57;15.60;84.60
21518;DHT22;61765;45.794;24.150;2023-04-02T04:24:06;15.70;84.40
21518;DHT22;61765;45.794;24.150;2023-04-02T04:32:23;15.70;84.00
21518;DHT22;61765;45.794;24.150;2023-04-02T04:40:43;15.70;84.20
21518;DHT22;61765;45.794;24.150;2023-04-02T04:49:01;15.60;84.50
21518;DHT22;61765;45.794;24.150;2023-04-02T04:57:20;15.60;84.50
21518;DHT22;61765;45.794;24.150;2023-04-02T05:05:31;15.80;84.00
21518;DHT22;61765;45.794;24.150;2023-04-02T05:13:43;16.00;84.40
21518;DHT22;61765;45.794;24.150;2023-04-02T05:21:59;15.80;84.60
21518;DHT22;61765;45.794;24.150;2023-04-02T05:30:17;15.80;85.40
21518;DHT22;61765;45.794;24.150;2023-04-02T05:38:32;15.50;85.80
21518;DHT22;61765;45.794;24.150;2023-04-02T05:46:44;15.40;86.70
21518;DHT22;61765;45.794;24.150;2023-04-02T05:54:58;15.30;86.80
21518;DHT22;61765;45.794;24.150;2023-04-02T06:03:11;14.80;89.70
21518;DHT22;61765;45.794;24.150;2023-04-02T06:11:26;14.80;88.70
21518;DHT22;61765;45.794;24.150;2023-04-02T06:19:36;15.30;88.00
21518;DHT22;61765;45.794;24.150;2023-04-02T06:27:46;15.80;86.20
21518;DHT22;61765;45.794;24.150;2023-04-02T06:35:55;15.90;86.00
21518;DHT22;61765;45.794;24.150;2023-04-02T06:44:11;16.10;84.80
21518;DHT22;61765;45.794;24.150;2023-04-02T06:52:39;16.50;84.00
21518;DHT22;61765;45.794;24.150;2023-04-02T07:00:51;17.00;83.40
21518;DHT22;61765;45.794;24.150;2023-04-02T07:09:05;17.40;82.30
21518;DHT22;61765;45.794;24.150;2023-04-02T07:17:18;17.60;81.80
21518;DHT22;61765;45.794;24.150;2023-04-02T07:25:25;17.60;80.70
21518;DHT22;61765;45.794;24.150;2023-04-02T07:33:33;17.60;80.20
21518;DHT22;61765;45.794;24.150;2023-04-02T07:41:52;17.90;80.40
21518;DHT22;61765;45.794;24.150;2023-04-02T07:50:01;18.10;79.70
21518;DHT22;61765;45.794;24.150;2023-04-02T07:58:07;17.90;79.40
21518;DHT22;61765;45.794;24.150;2023-04-02T08:06:16;18.10;79.30
21518;DHT22;61765;45.794;24.150;2023-04-02T08:14:22;18.10;79.10
21518;DHT22;61765;45.794;24.150;2023-04-02T08:22:30;18.10;79.30
21518;DHT22;61765;45.794;24.150;2023-04-02T08:30:36;18.20;79.60
21518;DHT22;61765;45.794;24.150;2023-04-02T08:38:44;18.20;80.50
21518;DHT22;61765;45.794;24.150;2023-04-02T08:46:52;18.30;80.10
21518;DHT22;61765;45.794;24.150;2023-04-02T08:55:09;18.20;80.60
21518;DHT22;61765;45.794;24.150;2023-04-02T09:03:23;17.60;82.00
21518;DHT22;61765;45.794;24.150;2023-04-02T09:11:39;17.90;82.70
21518;DHT22;61765;45.794;24.150;2023-04-02T09:19:53;17.90;82.50
21518;DHT22;61765;45.794;24.150;2023-04-02T09:28:04;18.00;82.70
21518;DHT22;61765;45.794;24.150;2023-04-02T09:36:18;18.00;82.50
21518;DHT22;61765;45.794;24.150;2023-04-02T09:44:32;18.20;81.50
21518;DHT22;61765;45.794;24.150;2023-04-02T09:52:38;18.60;81.00
21518;DHT22;61765;45.794;24.150;2023-04-02T10:00:53;19.50;78.10
21518;DHT22;61765;45.794;24.150;2023-04-02T10:09:18;20.00;76.30
21518;DHT22;61765;45.794;24.150;2023-04-02T10:17:31;20.50;75.60
21518;DHT22;61765;45.794;24.150;2023-04-02T10:25:43;21.60;74.70
21518;DHT22;61765;45.794;24.150;2023-04-02T10:33:58;24.30;69.90
21518;DHT22;61765;45.794;24.150;2023-04-02T10:42:12;30.80;56.40
21518;DHT22;61765;45.794;24.150;2023-04-02T10:50:30;36.60;46.80
21518;DHT22;61765;45.794;24.150;2023-04-02T10:58:41;38.80;41.50
21518;DHT22;61765;45.794;24.150;2023-04-02T11:06:54;34.50;42.40
21518;DHT22;61765;45.794;24.150;2023-04-02T11:15:15;32.90;43.80
21518;DHT22;61765;45.794;24.150;2023-04-02T11:23:27;29.40;48.00
21518;DHT22;61765;45.794;24.150;2023-04-02T11:31:32;31.50;46.70
21518;DHT22;61765;45.794;24.150;2023-04-02T11:39:50;31.20;44.30
21518;DHT22;61765;45.794;24.150;2023-04-02T11:48:26;28.30;47.60
21518;DHT22;61765;45.794;24.150;2023-04-02T11:56:40;24.60;56.20
21518;DHT22;61765;45.794;24.150;2023-04-02T12:05:09;22.60;62.50
21518;DHT22;61765;45.794;24.150;2023-04-02T12:13:49;20.70;69.40
21518;DHT22;61765;45.794;24.150;2023-04-02T12:21:55;19.70;73.50
21518;DHT22;61765;45.794;24.150;2023-04-02T12:30:17;20.10;73.80
21518;DHT22;61765;45.794;24.150;2023-04-02T12:38:25;19.90;72.20
21518;DHT22;61765;45.794;24.150;2023-04-02T12:46:34;19.30;73.60
21518;DHT22;61765;45.794;24.150;2023-04-02T12:54:44;18.70;76.60
21518;DHT22;61765;45.794;24.150;2023-04-02T13:02:59;17.60;80.00
21518;DHT22;61765;45.794;24.150;2023-04-02T13:11:05;16.70;82.60
21518;DHT22;61765;45.794;24.150;2023-04-02T13:19:29;16.40;83.20
21518;DHT22;61765;45.794;24.150;2023-04-02T13:27:35;16.40;81.80
21518;DHT22;61765;45.794;24.150;2023-04-02T13:35:43;16.50;83.50
21518;DHT22;61765;45.794;24.150;2023-04-02T13:43:51;15.70;84.40
21518;DHT22;61765;45.794;24.150;2023-04-02T13:52:11;16.20;83.80
21518;DHT22;61765;45.794;24.150;2023-04-02T14:00:19;16.20;83.50
21518;DHT22;61765;45.794;24.150;2023-04-02T14:08:34;15.50;86.90
21518;DHT22;61765;45.794;24.150;2023-04-02T14:16:53;15.20;88.00
21518;DHT22;61765;45.794;24.150;2023-04-02T14:25:12;15.40;88.30
21518;DHT22;61765;45.794;24.150;2023-04-02T14:33:27;15.90;86.70
21518;DHT22;61765;45.794;24.150;2023-04-02T14:41:44;15.10;88.00
21518;DHT22;61765;45.794;24.150;2023-04-02T14:49:54;14.70;88.50
21518;DHT22;61765;45.794;24.150;2023-04-02T14:58:09;16.10;86.00
21518;DHT22;61765;45.794;24.150;2023-04-02T15:06:22;17.10;82.30
21518;DHT22;61765;45.794;24.150;2023-04-02T15:14:36;17.80;79.60
21518;DHT22;61765;45.794;24.150;2023-04-02T15:22:54;17.70;80.00
21518;DHT22;61765;45.794;24.150;2023-04-02T15:31:06;17.80;79.30
21518;DHT22;61765;45.794;24.150;2023-04-02T15:47:53;17.10;81.30
21518;DHT22;61765;45.794;24.150;2023-04-02T15:56:16;16.40;83.50
21518;DHT22;61765;45.794;24.150;2023-04-02T16:04:47;15.70;84.90
21518;DHT22;61765;45.794;24.150;2023-04-02T16:12:55;14.70;88.40
21518;DHT22;61765;45.794;24.150;2023-04-02T16:21:03;15.40;86.80
21518;DHT22;61765;45.794;24.150;2023-04-02T16:29:23;15.40;85.80
21518;DHT22;61765;45.794;24.150;2023-04-02T16:46:27;14.80;85.80
21518;DHT22;61765;45.794;24.150;2023-04-02T16:54:46;15.60;85.60
21518;DHT22;61765;45.794;24.150;2023-04-02T17:03:04;14.70;86.30
21518;DHT22;61765;45.794;24.150;2023-04-02T17:11:23;15.00;86.40
21518;DHT22;61765;45.794;24.150;2023-04-02T17:19:32;15.10;85.60
21518;DHT22;61765;45.794;24.150;2023-04-02T17:27:41;15.20;85.80
21518;DHT22;61765;45.794;24.150;2023-04-02T17:53:06;15.00;86.60
21518;DHT22;61765;45.794;24.150;2023-04-02T18:01:19;15.10;87.00
21518;DHT22;61765;45.794;24.150;2023-04-02T18:09:39;15.30;86.50
21518;DHT22;61765;45.794;24.150;2023-04-02T18:17:58;15.40;86.40
21518;DHT22;61765;45.794;24.150;2023-04-02T18:26:22;15.70;86.10
21518;DHT22;61765;45.794;24.150;2023-04-02T18:34:45;15.70;85.80
21518;DHT22;61765;45.794;24.150;2023-04-02T18:43:01;15.60;85.90
21518;DHT22;61765;45.794;24.150;2023-04-02T18:51:13;15.50;86.10
21518;DHT22;61765;45.794;24.150;2023-04-02T18:59:39;15.60;85.40
21518;DHT22;61765;45.794;24.150;2023-04-02T19:07:48;15.70;84.80
21518;DHT22;61765;45.794;24.150;2023-04-02T19:16:08;15.80;85.00
21518;DHT22;61765;45.794;24.150;2023-04-02T19:24:23;15.80;85.30
21518;DHT22;61765;45.794;24.150;2023-04-02T19:32:39;15.70;84.50
21518;DHT22;61765;45.794;24.150;2023-04-02T19:40:54;15.40;85.80
21518;DHT22;61765;45.794;24.150;2023-04-02T19:49:08;15.60;86.00
21518;DHT22;61765;45.794;24.150;2023-04-02T19:57:16;15.50;85.80
21518;DHT22;61765;45.794;24.150;2023-04-02T20:05:24;15.10;86.40
21518;DHT22;61765;45.794;24.150;2023-04-02T20:13:40;15.30;86.20
21518;DHT22;61765;45.794;24.150;2023-04-02T20:21:48;15.30;86.30
21518;DHT22;61765;45.794;24.150;2023-04-02T20:29:54;14.10;89.70
21518;DHT22;61765;45.794;24.150;2023-04-02T20:38:02;14.50;89.60
21518;DHT22;61765;45.794;24.150;2023-04-02T20:46:10;14.90;88.70
21518;DHT22;61765;45.794;24.150;2023-04-02T20:54:20;15.00;87.30
21518;DHT22;61765;45.794;24.150;2023-04-02T21:02:25;15.20;87.50
21518;DHT22;61765;45.794;24.150;2023-04-02T21:10:34;15.20;87.20
21518;DHT22;61765;45.794;24.150;2023-04-02T21:18:39;15.30;87.50
21518;DHT22;61765;45.794;24.150;2023-04-02T21:26:47;15.00;87.70
21518;DHT22;61765;45.794;24.150;2023-04-02T21:34:53;14.80;88.90
21518;DHT22;61765;45.794;24.150;2023-04-02T21:43:03;14.80;89.00
21518;DHT22;61765;45.794;24.150;2023-04-02T21:51:12;14.70;89.40
21518;DHT22;61765;45.794;24.150;2023-04-02T21:59:25;14.10;90.20
21518;DHT22;61765;45.794;24.150;2023-04-02T22:07:31;14.10;90.50
21518;DHT22;61765;45.794;24.150;2023-04-02T22:15:39;14.20;90.30
21518;DHT22;61765;45.794;24.150;2023-04-02T22:23:46;14.40;90.00
21518;DHT22;61765;45.794;24.150;2023-04-02T22:41:30;14.50;90.00
21518;DHT22;61765;45.794;24.150;2023-04-02T22:49:36;14.60;89.40
21518;DHT22;61765;45.794;24.150;2023-04-02T22:57:45;14.50;89.60
21518;DHT22;61765;45.794;24.150;2023-04-02T23:05:57;14.50;89.20
21518;DHT22;61765;45.794;24.150;2023-04-02T23:14:05;14.50;89.50
21518;DHT22;61765;45.794;24.150;2023-04-02T23:22:11;14.70;89.00
21518;DHT22;61765;45.794;24.150;2023-04-02T23:30:19;14.60;88.80
21518;DHT22;61765;45.794;24.150;2023-04-02T23:38:25;14.30;89.80
21518;DHT22;61765;45.794;24.150;2023-04-02T23:46:34;14.50;89.20
21518;DHT22;61765;45.794;24.150;2023-04-02T23:54:40;14.50;89.30
